Time;durP1;ratioP1;P1;durP2;ratioP2;P2;SDS_P1;SDS_P2;PMS_P1;PMS_P2;Temp;Humidity;BMP_temperature;BMP_pressure;BME280_temperature;BME280_humidity;BME280_pressure;Samples;Min_cycle;Max_cycle;Signal;HPM_P1;HPM_P2
2023/09/30 00:02:16;;;;;;;7.70;3.70;;;;;;;;;;5038960;28;20116;-73
2023/09/30 00:04:41;;;;;;;5.80;3.13;;;;;;;;;;5030209;28;20044;-73
2023/09/30 00:07:07;;;;;;;9.20;3.92;;;;;;;;;;5025661;28;20469;-73
2023/09/30 00:09:33;;;;;;;8.80;3.97;;;;;;;;;;5024231;28;20045;-73
2023/09/30 00:11:59;;;;;;;12.98;3.60;;;;;;;;;;5024933;28;20064;-73
2023/09/30 00:14:25;;;;;;;8.77;3.80;;;;;;;;;;5025497;28;20107;-73
2023/09/30 00:16:50;;;;;;;10.30;3.88;;;;;;;;;;5023780;28;20068;-73
2023/09/30 00:19:16;;;;;;;9.63;4.28;;;;;;;;;;5024760;28;20025;-73
2023/09/30 00:21:41;;;;;;;10.05;4.13;;;;;;;;;;5024715;28;20506;-73
2023/09/30 00:24:07;;;;;;;12.60;4.30;;;;;;;;;;5023822;28;20040;-72
2023/09/30 00:26:32;;;;;;;10.60;4.00;;;;;;;;;;5025064;28;20067;-73
2023/09/30 00:28:58;;;;;;;9.38;4.10;;;;;;;;;;5022215;28;20561;-73
2023/09/30 00:31:23;;;;;;;9.75;3.97;;;;;;;;;;5024371;28;20522;-73
2023/09/30 00:33:48;;;;;;;8.27;4.05;;;;;;;;;;5024410;28;20083;-73
2023/09/30 00:36:14;;;;;;;8.82;4.20;;;;;;;;;;5024618;28;20038;-73
2023/09/30 00:38:40;;;;;;;9.30;3.80;;;;;;;;;;5024372;28;20493;-73
2023/09/30 00:41:07;;;;;;;9.45;4.07;;;;;;;;;;5022525;28;20060;-73
2023/09/30 00:43:32;;;;;;;10.15;4.00;;;;;;;;;;5024356;28;20045;-73
2023/09/30 00:46:06;;;;;;;11.98;4.53;;;;;;;;;;5024667;28;20053;-73
2023/09/30 00:48:32;;;;;;;;;;;;;;;;;;5024346;28;20040;-73
2023/09/30 00:50:57;;;;;;;9.32;4.43;;;;;;;;;;5024082;28;19943;-73
2023/09/30 00:53:23;;;;;;;9.48;3.83;;;;;;;;;;5023838;28;20877;-73
2023/09/30 00:55:49;;;;;;;9.18;4.30;;;;;;;;;;5023902;28;20037;-73
2023/09/30 00:58:14;;;;;;;8.02;4.30;;;;;;;;;;5022603;28;20034;-73
2023/09/30 01:00:40;;;;;;;11.40;4.28;;;;;;;;;;5024159;28;20075;-73
2023/09/30 01:03:06;;;;;;;11.57;4.15;;;;;;;;;;5023966;28;20065;-73
2023/09/30 01:05:31;;;;;;;14.32;4.10;;;;;;;;;;5024256;28;20067;-73
2023/09/30 01:07:57;;;;;;;11.07;4.38;;;;;;;;;;5023866;28;20029;-73
2023/09/30 01:10:22;;;;;;;9.50;4.35;;;;;;;;;;5022790;28;20065;-73
2023/09/30 01:12:48;;;;;;;9.88;3.97;;;;;;;;;;5023591;28;20573;-73
2023/09/30 01:15:13;;;;;;;7.63;3.60;;;;;;;;;;5022534;28;20095;-73
2023/09/30 01:17:38;;;;;;;8.63;4.35;;;;;;;;;;5024257;28;20017;-72
2023/09/30 01:20:06;;;;;;;10.57;3.72;;;;;;;;;;5024756;28;20490;-73
2023/09/30 01:22:32;;;;;;;9.52;4.28;;;;;;;;;;5025923;28;20060;-72
2023/09/30 01:24:57;;;;;;;11.48;3.97;;;;;;;;;;5032540;28;20037;-72
2023/09/30 01:27:23;;;;;;;7.03;3.60;;;;;;;;;;5040442;28;20478;-73
2023/09/30 01:29:48;;;;;;;8.02;3.75;;;;;;;;;;5033791;28;20052;-73
2023/09/30 01:32:14;;;;;;;7.85;4.18;;;;;;;;;;5027041;28;20068;-73
2023/09/30 01:34:39;;;;;;;9.05;3.83;;;;;;;;;;5024442;28;20068;-73
2023/09/30 01:37:04;;;;;;;14.73;4.60;;;;;;;;;;5023984;28;20029;-73
2023/09/30 01:39:30;;;;;;;7.80;3.75;;;;;;;;;;5023925;28;20120;-73
2023/09/30 01:41:55;;;;;;;8.43;3.75;;;;;;;;;;5022836;28;20535;-72
2023/09/30 01:44:21;;;;;;;10.13;3.67;;;;;;;;;;5023782;28;20033;-73
2023/09/30 01:46:46;;;;;;;13.23;4.50;;;;;;;;;;5023641;28;20419;-72
2023/09/30 01:49:11;;;;;;;8.43;3.85;;;;;;;;;;5022916;28;20060;-72
2023/09/30 01:51:37;;;;;;;11.07;4.18;;;;;;;;;;5021570;28;20454;-72
2023/09/30 01:54:02;;;;;;;9.60;3.90;;;;;;;;;;5022176;28;20041;-72
2023/09/30 01:56:28;;;;;;;11.35;3.88;;;;;;;;;;5023814;28;20098;-72
2023/09/30 01:58:53;;;;;;;14.15;4.82;;;;;;;;;;5023096;28;20033;-73
2023/09/30 02:01:18;;;;;;;14.93;3.97;;;;;;;;;;5023175;28;20581;-73
2023/09/30 02:03:44;;;;;;;9.20;4.00;;;;;;;;;;5023057;28;20042;-72
2023/09/30 02:06:10;;;;;;;9.27;4.13;;;;;;;;;;5022676;28;20118;-72
2023/09/30 02:08:36;;;;;;;11.57;3.67;;;;;;;;;;5022868;28;20045;-73
2023/09/30 02:11:02;;;;;;;9.15;4.43;;;;;;;;;;5021528;28;20490;-72
2023/09/30 02:13:28;;;;;;;8.48;3.50;;;;;;;;;;5022706;28;20037;-72
2023/09/30 02:15:55;;;;;;;9.10;3.80;;;;;;;;;;5022637;28;20038;-73
2023/09/30 02:18:21;;;;;;;10.27;4.10;;;;;;;;;;5022613;28;20063;-72
2023/09/30 02:20:46;;;;;;;13.65;4.28;;;;;;;;;;5021800;28;20032;-72
2023/09/30 02:23:12;;;;;;;9.88;3.95;;;;;;;;;;5023458;28;20793;-73
2023/09/30 02:25:38;;;;;;;15.98;5.22;;;;;;;;;;5020780;28;20060;-72
2023/09/30 02:28:04;;;;;;;9.57;4.32;;;;;;;;;;5022395;28;20538;-73
2023/09/30 02:30:30;;;;;;;11.20;4.30;;;;;;;;;;5022938;28;20029;-73
2023/09/30 02:32:56;;;;;;;10.70;4.28;;;;;;;;;;5022243;28;20580;-72
2023/09/30 02:35:21;;;;;;;8.68;3.95;;;;;;;;;;5021215;28;20029;-72
2023/09/30 02:37:47;;;;;;;10.95;4.10;;;;;;;;;;5022764;28;20044;-72
2023/09/30 02:40:14;;;;;;;6.15;2.90;;;;;;;;;;5022395;28;20044;-73
2023/09/30 02:42:40;;;;;;;8.00;3.90;;;;;;;;;;5022580;28;20046;-72
2023/09/30 02:45:10;;;;;;;10.32;3.90;;;;;;;;;;5023287;28;20037;-73
2023/09/30 02:47:35;;;;;;;8.27;3.67;;;;;;;;;;5024322;28;20032;-72
2023/09/30 02:50:01;;;;;;;7.72;3.70;;;;;;;;;;5032446;28;20061;-73
2023/09/30 02:52:28;;;;;;;8.60;3.83;;;;;;;;;;5035400;28;20109;-72
2023/09/30 02:54:54;;;;;;;7.40;3.70;;;;;;;;;;5028495;28;20132;-72
2023/09/30 02:57:20;;;;;;;11.05;4.18;;;;;;;;;;5025176;28;20132;-72
2023/09/30 02:59:47;;;;;;;9.68;3.72;;;;;;;;;;5024450;28;20115;-72
2023/09/30 03:02:12;;;;;;;9.65;4.13;;;;;;;;;;5025436;28;20025;-72
2023/09/30 03:04:37;;;;;;;8.18;4.07;;;;;;;;;;5025324;28;20626;-73
2023/09/30 03:07:03;;;;;;;7.57;3.40;;;;;;;;;;5024662;28;20038;-73
2023/09/30 03:09:28;;;;;;;7.72;3.25;;;;;;;;;;5026230;28;20033;-73
2023/09/30 03:11:56;;;;;;;8.00;3.50;;;;;;;;;;5026254;28;20041;-73
2023/09/30 03:14:22;;;;;;;9.45;3.50;;;;;;;;;;5026209;28;20022;-73
2023/09/30 03:16:48;;;;;;;8.48;3.67;;;;;;;;;;5026037;28;20037;-72
2023/09/30 03:19:16;;;;;;;6.00;2.97;;;;;;;;;;5024691;28;20060;-72
2023/09/30 03:21:42;;;;;;;7.35;3.20;;;;;;;;;;5026052;28;20046;-72
2023/09/30 03:24:08;;;;;;;11.65;3.13;;;;;;;;;;5025348;28;20052;-72
2023/09/30 03:26:33;;;;;;;8.73;3.80;;;;;;;;;;5024853;28;20040;-72
2023/09/30 03:28:59;;;;;;;7.93;3.58;;;;;;;;;;5026109;28;20025;-73
2023/09/30 03:31:25;;;;;;;8.57;3.50;;;;;;;;;;5025107;28;20041;-72
2023/09/30 03:33:53;;;;;;;9.98;3.63;;;;;;;;;;5025793;28;20041;-72
2023/09/30 03:36:24;;;;;;;7.28;3.53;;;;;;;;;;5023730;28;20034;-72
2023/09/30 03:38:54;;;;;;;6.30;3.60;;;;;;;;;;5023773;28;20072;-72
2023/09/30 03:41:19;;;;;;;11.82;3.47;;;;;;;;;;5024293;28;20056;-73
2023/09/30 03:43:45;;;;;;;7.82;3.88;;;;;;;;;;5025187;28;20037;-73
2023/09/30 03:46:12;;;;;;;6.68;3.30;;;;;;;;;;5025768;28;20037;-73
2023/09/30 03:48:39;;;;;;;7.43;3.45;;;;;;;;;;5025175;28;20041;-72
2023/09/30 03:51:09;;;;;;;15.35;4.10;;;;;;;;;;5025642;28;20045;-72
2023/09/30 03:53:34;;;;;;;7.85;3.67;;;;;;;;;;5024217;28;20033;-72
2023/09/30 03:55:59;;;;;;;11.95;3.28;;;;;;;;;;5025622;28;20029;-73
2023/09/30 03:58:25;;;;;;;5.90;2.90;;;;;;;;;;5025757;28;20136;-73
2023/09/30 04:00:51;;;;;;;8.80;3.00;;;;;;;;;;5025187;28;20179;-72
2023/09/30 04:03:17;;;;;;;8.68;3.20;;;;;;;;;;5015232;28;20045;-72
2023/09/30 04:05:42;;;;;;;9.55;3.55;;;;;;;;;;5017539;28;20033;-73
2023/09/30 04:08:08;;;;;;;8.60;3.50;;;;;;;;;;5024784;28;20025;-72
2023/09/30 04:10:34;;;;;;;9.23;3.90;;;;;;;;;;5026197;28;20136;-73
2023/09/30 04:12:59;;;;;;;8.07;3.92;;;;;;;;;;5028720;28;20542;-73
2023/09/30 04:15:25;;;;;;;7.45;3.38;;;;;;;;;;5037358;28;20033;-73
2023/09/30 04:17:51;;;;;;;8.05;2.97;;;;;;;;;;5042699;28;20465;-73
2023/09/30 04:20:20;;;;;;;9.02;3.50;;;;;;;;;;5032880;28;20061;-73
2023/09/30 04:22:48;;;;;;;8.07;3.30;;;;;;;;;;5026415;28;20037;-73
2023/09/30 04:25:16;;;;;;;13.07;3.50;;;;;;;;;;5025227;28;20056;-73
2023/09/30 04:27:42;;;;;;;8.18;3.17;;;;;;;;;;5023560;28;20045;-73
2023/09/30 04:30:11;;;;;;;10.90;3.40;;;;;;;;;;5024616;28;20044;-73
2023/09/30 04:32:38;;;;;;;11.10;3.85;;;;;;;;;;5024803;28;20043;-73
2023/09/30 04:35:04;;;;;;;9.52;3.60;;;;;;;;;;5025299;28;20271;-72
2023/09/30 04:37:30;;;;;;;10.23;3.20;;;;;;;;;;5024811;28;20065;-73
2023/09/30 04:39:55;;;;;;;7.88;3.33;;;;;;;;;;5024416;28;20041;-73
2023/09/30 04:42:20;;;;;;;9.73;3.15;;;;;;;;;;5024111;28;20052;-73
2023/09/30 04:44:46;;;;;;;6.25;2.92;;;;;;;;;;5024228;28;20037;-73
2023/09/30 04:47:11;;;;;;;8.88;2.75;;;;;;;;;;5024777;28;20034;-73
2023/09/30 04:49:37;;;;;;;9.65;3.13;;;;;;;;;;5020386;28;20077;-73
2023/09/30 04:52:02;;;;;;;6.75;3.05;;;;;;;;;;5020368;28;20067;-73
2023/09/30 04:54:29;;;;;;;7.47;3.33;;;;;;;;;;5023712;28;20426;-73
2023/09/30 04:56:55;;;;;;;8.90;3.50;;;;;;;;;;5024132;28;20142;-73
2023/09/30 04:59:20;;;;;;;7.15;3.75;;;;;;;;;;5024803;28;20108;-73
2023/09/30 05:01:46;;;;;;;10.32;3.08;;;;;;;;;;5023579;28;20098;-73
2023/09/30 05:04:11;;;;;;;9.77;3.17;;;;;;;;;;5022454;28;20086;-73
2023/09/30 05:06:36;;;;;;;9.50;3.40;;;;;;;;;;5023748;28;20052;-73
2023/09/30 05:09:02;;;;;;;7.68;3.42;;;;;;;;;;5023578;28;20167;-73
2023/09/30 05:11:27;;;;;;;7.78;3.10;;;;;;;;;;5023805;28;20029;-73
2023/09/30 05:13:53;;;;;;;8.95;3.30;;;;;;;;;;5023189;28;20409;-73
2023/09/30 05:16:18;;;;;;;10.38;3.17;;;;;;;;;;5023249;28;20057;-73
2023/09/30 05:18:43;;;;;;;9.82;3.33;;;;;;;;;;5022973;28;20590;-73
2023/09/30 05:21:10;;;;;;;6.47;3.15;;;;;;;;;;5023260;28;20543;-73
2023/09/30 05:23:36;;;;;;;12.63;3.28;;;;;;;;;;5023843;28;20025;-73
2023/09/30 05:26:02;;;;;;;9.77;3.45;;;;;;;;;;5011398;28;20087;-73
2023/09/30 05:28:27;;;;;;;9.68;4.25;;;;;;;;;;5019393;28;20033;-72
2023/09/30 05:30:53;;;;;;;11.98;3.60;;;;;;;;;;5022188;28;20120;-73
2023/09/30 05:33:18;;;;;;;13.63;3.22;;;;;;;;;;5019111;28;20057;-73
2023/09/30 05:35:44;;;;;;;7.13;2.40;;;;;;;;;;5024189;28;20033;-73
2023/09/30 05:38:10;;;;;;;11.85;3.17;;;;;;;;;;5028126;28;20025;-73
2023/09/30 05:40:36;;;;;;;6.05;3.17;;;;;;;;;;5031173;28;20045;-73
2023/09/30 05:43:01;;;;;;;10.38;2.90;;;;;;;;;;5026983;28;20625;-73
2023/09/30 05:45:30;;;;;;;11.05;3.20;;;;;;;;;;5023197;28;20041;-73
2023/09/30 05:47:57;;;;;;;8.80;3.50;;;;;;;;;;5022976;28;20094;-73
2023/09/30 05:50:26;;;;;;;12.55;3.30;;;;;;;;;;5020504;28;20963;-73
2023/09/30 05:52:53;;;;;;;11.65;3.25;;;;;;;;;;5022149;28;20410;-73
2023/09/30 05:55:20;;;;;;;9.02;3.13;;;;;;;;;;5015330;28;20034;-73
2023/09/30 05:57:49;;;;;;;11.40;3.25;;;;;;;;;;5009569;28;20029;-73
2023/09/30 06:00:37;;;;;;;14.20;3.40;;;;;;;;;;5022060;28;20945;-72
2023/09/30 06:03:04;;;;;;;7.10;3.17;;;;;;;;;;5015078;28;20033;-73
2023/09/30 06:05:30;;;;;;;9.50;2.85;;;;;;;;;;5020756;28;20137;-73
2023/09/30 06:07:56;;;;;;;9.38;3.90;;;;;;;;;;5021478;28;20561;-73
2023/09/30 06:10:22;;;;;;;12.38;3.22;;;;;;;;;;5023308;28;20132;-73
2023/09/30 06:12:54;;;;;;;6.75;3.53;;;;;;;;;;5022463;28;20541;-73
2023/09/30 06:15:21;;;;;;;8.77;3.28;;;;;;;;;;5022711;28;20065;-73
2023/09/30 06:17:50;;;;;;;8.43;3.53;;;;;;;;;;5020521;28;20072;-73
2023/09/30 06:20:18;;;;;;;8.63;2.67;;;;;;;;;;5022793;28;20025;-73
2023/09/30 06:22:49;;;;;;;8.95;3.50;;;;;;;;;;5022187;28;20884;-73
2023/09/30 06:25:18;;;;;;;9.45;3.63;;;;;;;;;;5018556;28;20045;-73
2023/09/30 06:27:48;;;;;;;9.68;3.50;;;;;;;;;;5020591;28;20037;-73
2023/09/30 06:30:17;;;;;;;11.10;3.53;;;;;;;;;;5022366;28;20037;-73
2023/09/30 06:32:43;;;;;;;12.13;3.30;;;;;;;;;;5020615;28;20032;-73
2023/09/30 06:35:12;;;;;;;12.43;3.67;;;;;;;;;;5021476;28;20029;-74
2023/09/30 06:37:38;;;;;;;7.50;3.67;;;;;;;;;;5015658;28;20527;-73
2023/09/30 06:40:09;;;;;;;10.48;3.72;;;;;;;;;;5018850;28;20435;-73
2023/09/30 06:42:35;;;;;;;7.18;3.50;;;;;;;;;;5020792;28;20041;-73
2023/09/30 06:45:07;;;;;;;12.40;3.55;;;;;;;;;;5019445;28;20590;-73
2023/09/30 06:47:36;;;;;;;10.80;3.70;;;;;;;;;;5020624;28;20040;-73
2023/09/30 06:50:07;;;;;;;12.73;4.10;;;;;;;;;;5015564;28;20017;-73
2023/09/30 06:52:38;;;;;;;12.25;3.35;;;;;;;;;;5022317;28;20733;-73
2023/09/30 06:55:04;;;;;;;11.35;3.47;;;;;;;;;;5015473;28;20025;-73
2023/09/30 06:57:34;;;;;;;9.55;3.80;;;;;;;;;;5020992;28;20029;-73
2023/09/30 06:59:59;;;;;;;10.70;3.67;;;;;;;;;;5021607;28;20113;-73
2023/09/30 07:02:24;;;;;;;12.10;3.60;;;;;;;;;;5026948;28;20117;-73
2023/09/30 07:04:51;;;;;;;10.15;3.85;;;;;;;;;;5034038;28;20025;-73
2023/09/30 07:07:16;;;;;;;10.65;3.42;;;;;;;;;;5040484;28;20034;-73
2023/09/30 07:09:44;;;;;;;11.02;3.55;;;;;;;;;;5026196;28;20033;-73
2023/09/30 07:12:09;;;;;;;11.82;3.97;;;;;;;;;;5023599;28;20036;-73
2023/09/30 07:14:34;;;;;;;9.25;3.70;;;;;;;;;;5021175;28;20029;-73
2023/09/30 07:17:00;;;;;;;8.23;4.32;;;;;;;;;;5023227;28;20596;-72
2023/09/30 07:19:25;;;;;;;10.57;3.75;;;;;;;;;;5021929;28;20088;-72
2023/09/30 07:21:51;;;;;;;19.00;3.85;;;;;;;;;;5021292;28;20041;-72
2023/09/30 07:24:16;;;;;;;9.00;3.47;;;;;;;;;;5021675;28;20033;-72
2023/09/30 07:26:41;;;;;;;11.45;3.88;;;;;;;;;;5021957;28;20057;-72
2023/09/30 07:29:09;;;;;;;17.80;3.72;;;;;;;;;;5022110;28;20059;-72
2023/09/30 07:31:38;;;;;;;14.88;3.67;;;;;;;;;;5021412;28;20037;-72
2023/09/30 07:34:03;;;;;;;15.82;4.45;;;;;;;;;;5013539;28;20026;-72
2023/09/30 07:36:29;;;;;;;18.55;4.43;;;;;;;;;;5020126;28;20381;-72
2023/09/30 07:38:54;;;;;;;14.27;3.58;;;;;;;;;;5013008;28;20533;-73
2023/09/30 07:41:19;;;;;;;12.52;3.70;;;;;;;;;;5018558;28;20053;-72
2023/09/30 07:43:45;;;;;;;11.30;4.05;;;;;;;;;;5017928;28;20126;-72
2023/09/30 07:46:10;;;;;;;9.82;3.53;;;;;;;;;;5025067;28;20037;-72
2023/09/30 07:48:36;;;;;;;14.10;3.75;;;;;;;;;;5024585;28;20485;-73
2023/09/30 07:51:02;;;;;;;11.35;3.30;;;;;;;;;;5015864;28;20064;-73
2023/09/30 07:53:28;;;;;;;9.38;3.50;;;;;;;;;;5023810;28;20025;-72
2023/09/30 07:55:54;;;;;;;10.40;4.13;;;;;;;;;;5025409;28;20095;-73
2023/09/30 07:58:20;;;;;;;13.75;4.10;;;;;;;;;;5021701;28;20033;-73
2023/09/30 08:00:45;;;;;;;11.80;4.15;;;;;;;;;;5024367;28;20033;-74
2023/09/30 08:03:11;;;;;;;12.77;4.00;;;;;;;;;;5019965;28;20034;-74
2023/09/30 08:05:37;;;;;;;17.15;4.90;;;;;;;;;;5016098;28;20026;-74
2023/09/30 08:08:03;;;;;;;16.30;4.72;;;;;;;;;;5024805;28;20046;-74
2023/09/30 08:10:29;;;;;;;14.77;3.55;;;;;;;;;;5025352;28;20043;-74
2023/09/30 08:12:57;;;;;;;16.52;4.43;;;;;;;;;;5016505;28;20049;-73
2023/09/30 08:15:23;;;;;;;11.05;4.22;;;;;;;;;;5015908;28;20111;-74
2023/09/30 08:17:48;;;;;;;15.48;3.60;;;;;;;;;;5011410;28;20038;-73
2023/09/30 08:20:14;;;;;;;16.25;3.88;;;;;;;;;;5017744;28;20067;-72
2023/09/30 08:22:40;;;;;;;17.20;4.18;;;;;;;;;;5025008;28;20065;-72
2023/09/30 08:25:07;;;;;;;16.85;3.95;;;;;;;;;;5026910;28;20518;-72
2023/09/30 08:27:32;;;;;;;10.60;4.22;;;;;;;;;;5033575;28;20051;-72
2023/09/30 08:29:57;;;;;;;12.63;3.30;;;;;;;;;;5035031;28;20309;-72
2023/09/30 08:32:23;;;;;;;16.50;4.45;;;;;;;;;;5023606;28;20067;-73
2023/09/30 08:34:49;;;;;;;12.63;3.95;;;;;;;;;;5022220;28;20033;-73
2023/09/30 08:37:14;;;;;;;25.65;6.70;;;;;;;;;;5022914;28;20029;-73
2023/09/30 08:39:40;;;;;;;14.65;4.40;;;;;;;;;;5024509;28;20441;-73
2023/09/30 08:42:11;;;;;;;18.35;4.55;;;;;;;;;;5023975;28;20041;-73
2023/09/30 08:44:39;;;;;;;16.65;4.25;;;;;;;;;;5023724;28;20108;-74
2023/09/30 08:47:06;;;;;;;15.48;3.85;;;;;;;;;;5024517;28;20040;-73
2023/09/30 08:49:35;;;;;;;16.88;4.10;;;;;;;;;;5023455;28;20041;-75
2023/09/30 08:52:01;;;;;;;21.40;4.72;;;;;;;;;;5023989;28;20045;-73
2023/09/30 08:54:27;;;;;;;17.65;6.40;;;;;;;;;;5019242;28;20038;-73
2023/09/30 08:56:53;;;;;;;18.00;4.70;;;;;;;;;;5013384;28;20116;-73
2023/09/30 08:59:19;;;;;;;21.73;6.18;;;;;;;;;;5010562;28;20544;-73
2023/09/30 09:01:45;;;;;;;12.52;4.38;;;;;;;;;;5021994;28;20043;-72
2023/09/30 09:04:10;;;;;;;20.58;5.32;;;;;;;;;;5023760;28;20037;-73
2023/09/30 09:06:36;;;;;;;20.92;6.20;;;;;;;;;;5009064;28;20120;-74
2023/09/30 09:09:15;;;;;;;21.08;6.20;;;;;;;;;;5016141;28;20140;-73
2023/09/30 09:11:41;;;;;;;19.23;6.03;;;;;;;;;;5022626;28;20511;-73
2023/09/30 09:14:07;;;;;;;22.85;6.32;;;;;;;;;;5024282;28;20068;-73
2023/09/30 09:16:32;;;;;;;18.58;5.72;;;;;;;;;;5023554;28;20565;-73
2023/09/30 09:18:58;;;;;;;21.55;7.10;;;;;;;;;;5019357;28;20041;-73
2023/09/30 09:21:25;;;;;;;16.55;6.43;;;;;;;;;;5011379;28;20719;-73
2023/09/30 09:23:51;;;;;;;20.45;7.10;;;;;;;;;;5014111;28;20042;-73
2023/09/30 09:26:27;;;;;;;22.17;7.25;;;;;;;;;;5023897;28;20033;-73
2023/09/30 09:29:04;;;;;;;18.63;8.32;;;;;;;;;;5023676;28;20041;-73
2023/09/30 09:31:34;;;;;;;31.52;7.18;;;;;;;;;;5023869;28;20535;-73
2023/09/30 09:34:00;;;;;;;19.08;6.43;;;;;;;;;;5015351;28;20558;-72
2023/09/30 09:36:58;;;;;;;24.10;6.10;;;;;;;;;;5015488;28;20077;-72
2023/09/30 09:39:32;;;;;;;14.65;6.45;;;;;;;;;;5015525;28;20048;-72
2023/09/30 09:41:58;;;;;;;22.20;6.97;;;;;;;;;;5023541;28;20092;-72
2023/09/30 09:44:27;;;;;;;23.13;6.50;;;;;;;;;;5023239;28;20025;-72
2023/09/30 09:46:52;;;;;;;18.50;6.85;;;;;;;;;;5026091;28;20119;-72
2023/09/30 09:49:20;;;;;;;16.67;6.32;;;;;;;;;;5033604;28;20041;-72
2023/09/30 09:51:47;;;;;;;17.15;5.93;;;;;;;;;;5039948;28;20048;-72
2023/09/30 09:54:14;;;;;;;14.48;5.22;;;;;;;;;;5030912;28;20073;-73
2023/09/30 09:56:43;;;;;;;17.40;6.03;;;;;;;;;;5015819;28;20037;-72
2023/09/30 09:59:11;;;;;;;19.05;5.85;;;;;;;;;;5010676;28;20427;-72
2023/09/30 10:01:39;;;;;;;14.90;5.63;;;;;;;;;;5017534;28;20040;-72
2023/09/30 10:04:05;;;;;;;17.73;5.43;;;;;;;;;;5021123;28;20071;-72
2023/09/30 10:06:30;;;;;;;15.68;5.80;;;;;;;;;;5021497;28;20087;-72
2023/09/30 10:08:57;;;;;;;10.18;4.65;;;;;;;;;;5011506;28;20049;-72
2023/09/30 10:11:23;;;;;;;11.85;4.40;;;;;;;;;;5023381;28;20041;-72
2023/09/30 10:13:55;;;;;;;21.38;5.30;;;;;;;;;;5022452;28;20060;-72
2023/09/30 10:16:36;;;;;;;10.93;4.35;;;;;;;;;;5023296;28;20041;-72
2023/09/30 10:19:12;;;;;;;18.13;4.80;;;;;;;;;;5013450;28;20418;-73
2023/09/30 10:21:39;;;;;;;20.45;4.22;;;;;;;;;;5022844;28;20045;-72
2023/09/30 10:24:22;;;;;;;16.17;4.75;;;;;;;;;;5014645;28;20072;-73
2023/09/30 10:27:08;;;;;;;;;;;;;;;;;;5014108;28;20593;-73
2023/09/30 10:29:42;;;;;;;10.75;3.53;;;;;;;;;;5016567;28;20751;-73
2023/09/30 10:32:08;;;;;;;17.05;5.20;;;;;;;;;;5012303;28;20418;-73
2023/09/30 10:34:34;;;;;;;18.58;3.65;;;;;;;;;;5022617;28;20041;-72
2023/09/30 10:37:19;;;;;;;11.65;3.70;;;;;;;;;;5020455;28;20033;-73
2023/09/30 10:40:02;;;;;;;11.95;3.42;;;;;;;;;;5022412;28;20083;-73
2023/09/30 10:42:49;;;;;;;10.57;3.28;;;;;;;;;;5011496;28;20049;-72
2023/09/30 10:45:40;;;;;;;22.38;3.97;;;;;;;;;;5016841;28;20037;-72
2023/09/30 10:48:41;;;;;;;10.70;3.15;;;;;;;;;;5015832;28;20057;-72
2023/09/30 10:51:11;;;;;;;16.85;4.60;;;;;;;;;;5032499;28;20036;-72
2023/09/30 10:53:45;;;;;;;14.85;3.00;;;;;;;;;;5013864;28;20122;-72
2023/09/30 10:56:11;;;;;;;14.27;2.95;;;;;;;;;;5023211;28;20033;-72
2023/09/30 10:58:45;;;;;;;14.77;3.30;;;;;;;;;;5022026;28;20532;-72
2023/09/30 11:01:13;;;;;;;9.43;3.10;;;;;;;;;;5016084;28;20030;-72
2023/09/30 11:03:39;;;;;;;10.60;2.90;;;;;;;;;;5022188;28;20037;-72
2023/09/30 11:06:04;;;;;;;9.38;3.10;;;;;;;;;;5022936;28;20133;-72
2023/09/30 11:08:30;;;;;;;7.70;2.63;;;;;;;;;;5023555;28;20022;-72
2023/09/30 11:10:56;;;;;;;9.98;2.50;;;;;;;;;;5028042;28;20034;-72
2023/09/30 11:13:22;;;;;;;11.07;2.28;;;;;;;;;;5032849;28;20083;-72
2023/09/30 11:15:58;;;;;;;10.40;2.30;;;;;;;;;;5019514;28;20046;-73
2023/09/30 11:18:24;;;;;;;10.80;2.47;;;;;;;;;;5021740;28;20125;-72
2023/09/30 11:20:49;;;;;;;7.07;2.40;;;;;;;;;;5025368;28;20124;-72
2023/09/30 11:23:15;;;;;;;9.57;2.58;;;;;;;;;;5026745;28;20987;-72
2023/09/30 11:25:41;;;;;;;7.53;2.20;;;;;;;;;;5023915;28;20044;-72
2023/09/30 11:28:17;;;;;;;9.15;2.22;;;;;;;;;;5017833;28;20045;-72
2023/09/30 11:31:06;;;;;;;10.63;2.10;;;;;;;;;;5019015;28;20033;-71
2023/09/30 11:33:33;;;;;;;10.10;2.20;;;;;;;;;;5018513;28;20511;-73
2023/09/30 11:36:03;;;;;;;7.97;1.95;;;;;;;;;;5018380;28;20041;-73
2023/09/30 11:38:29;;;;;;;12.38;2.42;;;;;;;;;;5025738;28;20075;-72
2023/09/30 11:41:05;;;;;;;9.85;2.13;;;;;;;;;;5025724;28;20525;-73
2023/09/30 11:43:31;;;;;;;7.85;2.17;;;;;;;;;;5025412;28;20046;-72
2023/09/30 11:46:13;;;;;;;9.57;2.17;;;;;;;;;;5023368;28;20049;-74
2023/09/30 11:48:55;;;;;;;10.35;2.65;;;;;;;;;;5020002;28;20037;-74
2023/09/30 11:51:24;;;;;;;7.80;2.25;;;;;;;;;;5025355;28;20041;-73
2023/09/30 11:53:53;;;;;;;7.28;2.05;;;;;;;;;;5024694;28;20045;-74
2023/09/30 11:56:19;;;;;;;5.90;1.98;;;;;;;;;;5024615;28;20032;-74
2023/09/30 11:58:46;;;;;;;9.38;2.47;;;;;;;;;;5025263;28;20061;-74
2023/09/30 12:01:13;;;;;;;8.27;1.70;;;;;;;;;;5024873;28;20124;-74
2023/09/30 12:03:39;;;;;;;6.15;1.80;;;;;;;;;;5024953;28;20039;-74
2023/09/30 12:06:06;;;;;;;5.65;1.80;;;;;;;;;;5021234;28;20374;-74
2023/09/30 12:08:32;;;;;;;5.63;1.95;;;;;;;;;;5023552;28;20029;-74
2023/09/30 12:10:59;;;;;;;6.35;1.80;;;;;;;;;;5024188;28;20029;-74
2023/09/30 12:13:25;;;;;;;33.63;6.05;;;;;;;;;;5025190;28;20048;-74
2023/09/30 12:15:52;;;;;;;7.38;2.30;;;;;;;;;;5024724;28;20181;-74
2023/09/30 12:18:23;;;;;;;8.77;2.15;;;;;;;;;;5025228;28;20135;-74
2023/09/30 12:20:49;;;;;;;6.97;2.03;;;;;;;;;;5024645;28;20037;-74
2023/09/30 12:23:14;;;;;;;6.28;2.20;;;;;;;;;;5023557;28;20037;-74
2023/09/30 12:25:40;;;;;;;5.25;1.95;;;;;;;;;;5008252;28;20053;-74
2023/09/30 12:28:05;;;;;;;6.13;1.52;;;;;;;;;;5011680;28;20041;-74
2023/09/30 12:30:31;;;;;;;26.75;4.68;;;;;;;;;;5017460;28;20061;-72
2023/09/30 12:32:57;;;;;;;8.82;1.85;;;;;;;;;;5019899;28;20307;-74
2023/09/30 12:35:23;;;;;;;5.57;1.70;;;;;;;;;;5023811;28;20029;-73
2023/09/30 12:37:48;;;;;;;6.82;1.95;;;;;;;;;;5025141;28;20034;-73
2023/09/30 12:40:16;;;;;;;4.90;1.60;;;;;;;;;;5011616;28;20071;-74
2023/09/30 12:42:43;;;;;;;7.95;2.08;;;;;;;;;;5015457;28;20140;-73
2023/09/30 12:45:08;;;;;;;5.50;1.67;;;;;;;;;;5014154;28;20136;-73
2023/09/30 12:47:34;;;;;;;5.00;2.20;;;;;;;;;;5010598;28;20029;-74
2023/09/30 12:49:59;;;;;;;11.80;2.38;;;;;;;;;;5021226;28;20040;-73
2023/09/30 12:52:25;;;;;;;6.65;2.10;;;;;;;;;;5018965;28;20053;-73
2023/09/30 12:54:51;;;;;;;5.40;1.70;;;;;;;;;;5019244;28;20415;-73
2023/09/30 12:57:17;;;;;;;8.52;2.67;;;;;;;;;;5024448;28;20049;-73
2023/09/30 12:59:46;;;;;;;9.90;2.47;;;;;;;;;;5019341;28;20060;-74
2023/09/30 13:02:12;;;;;;;7.35;2.35;;;;;;;;;;5020828;28;20029;-74
2023/09/30 13:04:42;;;;;;;7.90;2.75;;;;;;;;;;5015803;28;20053;-73
2023/09/30 13:07:11;;;;;;;12.15;2.33;;;;;;;;;;5004857;28;20667;-73
2023/09/30 13:09:39;;;;;;;7.22;2.53;;;;;;;;;;5010828;28;20470;-74
2023/09/30 13:12:05;;;;;;;7.90;2.25;;;;;;;;;;4993697;28;21305;-73
2023/09/30 13:14:30;;;;;;;8.18;2.55;;;;;;;;;;5006828;28;20035;-73
2023/09/30 13:16:56;;;;;;;9.00;2.67;;;;;;;;;;5012996;28;20055;-74
2023/09/30 13:19:22;;;;;;;15.43;3.50;;;;;;;;;;5012180;28;20964;-74
2023/09/30 13:21:49;;;;;;;13.88;3.13;;;;;;;;;;5012657;28;20581;-73
2023/09/30 13:24:15;;;;;;;9.85;2.90;;;;;;;;;;5017705;28;20041;-72
2023/09/30 13:26:40;;;;;;;8.25;2.67;;;;;;;;;;5023006;28;20033;-72
2023/09/30 13:29:07;;;;;;;6.78;2.40;;;;;;;;;;5016332;28;20029;-74
2023/09/30 13:31:32;;;;;;;6.70;2.67;;;;;;;;;;5020683;28;20045;-74
2023/09/30 13:33:57;;;;;;;10.70;3.28;;;;;;;;;;5015283;28;20977;-74
2023/09/30 13:36:23;;;;;;;6.95;2.78;;;;;;;;;;5018744;28;20065;-73
2023/09/30 13:38:49;;;;;;;8.40;3.10;;;;;;;;;;5022464;28;20029;-74
2023/09/30 13:41:15;;;;;;;8.23;2.50;;;;;;;;;;5022311;28;20600;-74
2023/09/30 13:43:41;;;;;;;8.57;2.72;;;;;;;;;;5021964;28;20033;-74
2023/09/30 13:46:06;;;;;;;8.57;2.28;;;;;;;;;;5020214;28;20037;-74
2023/09/30 13:48:33;;;;;;;12.65;2.65;;;;;;;;;;5015982;28;20052;-74
2023/09/30 13:51:08;;;;;;;7.30;1.92;;;;;;;;;;5023222;28;20691;-73
2023/09/30 13:53:34;;;;;;;9.35;2.33;;;;;;;;;;5019778;28;20029;-74
2023/09/30 13:56:00;;;;;;;7.35;2.40;;;;;;;;;;5019882;28;20139;-73
2023/09/30 13:58:25;;;;;;;5.95;2.38;;;;;;;;;;5029617;28;20048;-73
2023/09/30 14:00:54;;;;;;;12.55;2.45;;;;;;;;;;5036175;28;20044;-73
2023/09/30 14:03:19;;;;;;;8.27;2.38;;;;;;;;;;5017939;28;20137;-73
2023/09/30 14:05:46;;;;;;;8.15;3.00;;;;;;;;;;5018945;28;20108;-73
2023/09/30 14:08:12;;;;;;;10.38;2.55;;;;;;;;;;5022237;28;20447;-73
2023/09/30 14:10:38;;;;;;;6.50;3.05;;;;;;;;;;5022625;28;20045;-74
2023/09/30 14:13:03;;;;;;;6.35;2.28;;;;;;;;;;5022136;28;20037;-73
2023/09/30 14:15:30;;;;;;;7.05;2.50;;;;;;;;;;5021222;28;20411;-73
2023/09/30 14:17:59;;;;;;;13.30;2.47;;;;;;;;;;5019985;28;21302;-74
2023/09/30 14:20:25;;;;;;;11.50;3.13;;;;;;;;;;5012230;28;20112;-74
2023/09/30 14:22:55;;;;;;;11.85;2.60;;;;;;;;;;5020032;28;20707;-72
2023/09/30 14:25:21;;;;;;;10.80;2.45;;;;;;;;;;5013775;28;20048;-73
2023/09/30 14:27:47;;;;;;;9.90;2.75;;;;;;;;;;5016163;28;20080;-73
2023/09/30 14:30:13;;;;;;;7.93;2.28;;;;;;;;;;5014095;28;20049;-73
2023/09/30 14:32:39;;;;;;;7.13;2.20;;;;;;;;;;5016251;28;20033;-73
2023/09/30 14:35:05;;;;;;;8.88;2.58;;;;;;;;;;5009579;28;20029;-73
2023/09/30 14:37:31;;;;;;;5.35;2.35;;;;;;;;;;5014505;28;20041;-73
2023/09/30 14:39:57;;;;;;;5.82;2.03;;;;;;;;;;5018257;28;20049;-73